Vranje, Serbia
Current Conditions -  °F | °C
As of 12:00 PM on Wednesday 26 Nov 2014 (Local Time) from LWSK Reporting Station
Broken Clouds Broken Clouds  
Wind Chill: 45°   Ceiling: 4300
Heat Index: 45°   Visibility: 6mi
Dew Point: 34°   Wind: 1mph
Humidity: 66%   Direction: 270°W
Pressure: 30.21"   Gusts: NA
Location:  42.57°N, 21.91°E
Report Text: LWSK 261000Z 27001KT 9999 FEW030 BKN043 07/01 Q1023 NOSIG
Loading
Personal Weather Stations






























Interactive Weather Map New forecast layout! Learn more

10-Day Weather Forecast

Advertisements
Track Severe Weather on mobile